createdAt,value
2019-03-15T00:01:31.438Z,4.10
2019-03-15T00:05:36.613Z,3.22
2019-03-15T00:09:42.516Z,3.22
2019-03-15T00:13:47.489Z,2.80
2019-03-15T00:17:52.436Z,2.40
2019-03-15T00:21:57.440Z,2.58
2019-03-15T00:26:02.398Z,2.20
2019-03-15T00:30:10.433Z,2.10
2019-03-15T00:34:16.153Z,1.98
2019-03-15T00:38:21.641Z,2.45
2019-03-15T00:42:26.592Z,2.15
2019-03-15T00:46:31.569Z,2.25
2019-03-15T00:50:36.520Z,2.52
2019-03-15T00:54:41.516Z,1.95
2019-03-15T00:58:46.461Z,2.52
2019-03-15T01:02:51.550Z,2.27
2019-03-15T01:06:57.461Z,2.65
2019-03-15T01:11:02.420Z,2.37
2019-03-15T01:15:09.323Z,2.30
2019-03-15T01:19:15.351Z,3.15
2019-03-15T01:23:20.334Z,2.37
2019-03-15T01:27:25.311Z,2.77
2019-03-15T01:31:30.276Z,2.80
2019-03-15T01:35:35.468Z,2.58
2019-03-15T01:39:40.459Z,2.40
2019-03-15T01:43:45.411Z,2.77
2019-03-15T01:47:50.555Z,2.95
2019-03-15T01:51:55.541Z,1.75
2019-03-15T01:56:00.536Z,2.45
2019-03-15T02:00:09.625Z,2.47
2019-03-15T02:04:14.589Z,2.72
2019-03-15T02:08:19.562Z,3.55
2019-03-15T02:12:24.513Z,2.72
2019-03-15T02:16:29.500Z,2.22
2019-03-15T02:20:34.452Z,3.67
2019-03-15T02:24:39.435Z,2.35
2019-03-15T02:28:44.393Z,2.98
2019-03-15T02:32:49.385Z,3.50
2019-03-15T02:36:54.361Z,2.83
2019-03-15T02:40:59.337Z,1.98
2019-03-15T02:45:06.267Z,2.40
2019-03-15T02:49:12.652Z,2.80
2019-03-15T02:53:18.591Z,2.40
2019-03-15T02:57:23.615Z,2.52
2019-03-15T03:01:29.630Z,2.80
2019-03-15T03:05:34.704Z,2.47
2019-03-15T03:09:39.597Z,2.67
2019-03-15T03:13:45.663Z,2.95
2019-03-15T03:17:50.618Z,2.67
2019-03-15T03:21:55.631Z,2.65
2019-03-15T03:26:00.631Z,2.27
2019-03-15T03:30:08.518Z,2.70
2019-03-15T03:34:13.521Z,2.37
2019-03-15T03:38:19.557Z,2.75
2019-03-15T03:42:24.538Z,3.00
2019-03-15T03:46:29.513Z,1.85
2019-03-15T03:50:34.486Z,2.10
2019-03-15T03:54:39.469Z,1.70
2019-03-15T03:58:44.449Z,2.90
2019-03-15T04:02:49.452Z,1.90
2019-03-15T04:06:54.712Z,2.58
2019-03-15T04:10:59.668Z,1.80
2019-03-15T04:15:06.685Z,2.10
2019-03-15T04:19:11.636Z,2.52
2019-03-15T04:23:16.617Z,2.17
2019-03-15T04:27:21.610Z,1.80
2019-03-15T04:31:26.646Z,2.50
2019-03-15T04:35:31.545Z,1.62
2019-03-15T04:39:36.526Z,2.08
2019-03-15T04:43:41.621Z,1.82
2019-03-15T04:47:46.687Z,1.90
2019-03-15T04:51:51.651Z,1.40
2019-03-15T04:55:56.650Z,1.80
2019-03-15T05:00:01.764Z,1.57
2019-03-15T05:04:08.232Z,1.50
2019-03-15T05:08:13.196Z,1.50
2019-03-15T05:12:18.178Z,1.70
2019-03-15T05:16:23.161Z,1.60
2019-03-15T05:20:29.433Z,1.57
2019-03-15T05:24:34.375Z,1.40
2019-03-15T05:28:39.337Z,1.20
2019-03-15T05:32:45.405Z,1.67
2019-03-15T05:36:50.377Z,1.65
2019-03-15T05:40:55.337Z,1.67
2019-03-15T05:45:00.431Z,1.42
2019-03-15T05:49:05.565Z,1.10
2019-03-15T05:53:10.584Z,1.00
2019-03-15T05:57:15.513Z,1.15
2019-03-15T06:01:20.499Z,1.00
2019-03-15T06:05:25.451Z,1.00
2019-03-15T06:09:30.456Z,1.00
2019-03-15T06:13:35.393Z,1.02
2019-03-15T06:17:40.391Z,1.20
2019-03-15T06:21:45.340Z,1.10
2019-03-15T06:25:50.317Z,0.88
2019-03-15T06:29:55.266Z,0.90
2019-03-15T06:34:00.252Z,0.90
2019-03-15T06:38:05.184Z,0.93
2019-03-15T06:42:10.205Z,1.30
2019-03-15T06:46:15.515Z,0.80
2019-03-15T06:50:20.495Z,0.70
2019-03-15T06:54:25.455Z,1.10
2019-03-15T06:58:30.404Z,0.80
2019-03-15T07:02:35.503Z,1.22
2019-03-15T07:06:40.619Z,2.05
2019-03-15T07:10:45.770Z,1.00
2019-03-15T07:14:50.737Z,1.45
2019-03-15T07:18:55.708Z,1.77
2019-03-15T07:23:00.685Z,1.40
2019-03-15T07:27:12.696Z,1.30
2019-03-15T07:31:12.230Z,1.20
2019-03-15T07:35:17.218Z,1.80
2019-03-15T07:39:22.170Z,1.22
2019-03-15T07:43:27.167Z,1.87
2019-03-15T07:47:32.121Z,1.47
2019-03-15T07:51:37.098Z,1.80
2019-03-15T07:55:43.120Z,1.87
2019-03-15T07:59:48.109Z,1.72
2019-03-15T08:03:53.078Z,1.52
2019-03-15T08:07:58.034Z,1.55
2019-03-15T08:12:03.021Z,1.77
2019-03-15T08:16:07.969Z,1.72
2019-03-15T08:20:14.378Z,1.60
2019-03-15T08:24:19.498Z,1.52
2019-03-15T08:28:24.467Z,1.20
2019-03-15T08:32:29.444Z,1.60
2019-03-15T08:36:34.417Z,1.17
2019-03-15T08:40:39.378Z,1.52
2019-03-15T08:44:44.358Z,1.47
2019-03-15T08:48:49.340Z,1.82
2019-03-15T08:52:54.586Z,2.12
2019-03-15T08:56:59.681Z,1.85
2019-03-15T09:01:04.625Z,2.70
2019-03-15T09:05:11.543Z,2.70
2019-03-15T09:09:16.519Z,3.80
2019-03-15T09:13:21.501Z,2.98
2019-03-15T09:17:26.449Z,3.30
2019-03-15T09:21:31.446Z,3.35
2019-03-15T09:25:36.397Z,2.52
2019-03-15T09:29:41.372Z,3.02
2019-03-15T09:33:46.360Z,2.72
2019-03-15T09:37:51.295Z,4.20
2019-03-15T09:41:56.306Z,2.92
2019-03-15T09:46:01.512Z,2.80
2019-03-15T09:50:21.055Z,2.85
2019-03-15T09:54:16.481Z,2.70
2019-03-15T09:58:21.448Z,2.52
2019-03-15T10:02:30.672Z,2.30
2019-03-15T10:06:33.023Z,2.70
2019-03-15T10:10:38.005Z,2.58
2019-03-15T10:14:43.007Z,2.47
2019-03-15T10:18:50.366Z,2.90
2019-03-15T10:23:05.588Z,2.50
2019-03-15T10:27:01.182Z,2.75
2019-03-15T10:31:06.109Z,3.10
2019-03-15T10:35:11.163Z,3.02
2019-03-15T10:39:16.157Z,3.75
2019-03-15T10:43:21.100Z,2.98
2019-03-15T10:47:26.290Z,2.87
2019-03-15T10:51:31.743Z,3.83
2019-03-15T10:55:36.713Z,3.12
2019-03-15T10:59:41.669Z,4.15
2019-03-15T11:03:46.648Z,2.77
2019-03-15T11:07:51.656Z,2.60
2019-03-15T11:11:56.613Z,3.17
2019-03-15T11:16:01.593Z,2.30
2019-03-15T11:20:09.747Z,2.55
2019-03-15T11:24:14.726Z,2.52
2019-03-15T11:28:19.693Z,2.60
2019-03-15T11:32:24.673Z,2.62
2019-03-15T11:36:29.637Z,2.80
2019-03-15T11:40:37.802Z,2.95
2019-03-15T11:44:41.229Z,2.87
2019-03-15T11:48:46.212Z,2.85
2019-03-15T11:52:51.214Z,2.98
2019-03-15T11:56:56.279Z,3.17
2019-03-15T12:01:01.255Z,3.30
2019-03-15T12:05:07.394Z,2.92
2019-03-15T12:09:12.401Z,3.33
2019-03-15T12:13:17.397Z,3.08
2019-03-15T12:17:22.397Z,2.72
2019-03-15T12:21:27.374Z,3.47
2019-03-15T12:25:32.354Z,2.87
2019-03-15T12:29:37.487Z,3.05
2019-03-15T12:33:42.461Z,5.65
2019-03-15T12:37:47.888Z,3.10
2019-03-15T12:41:52.985Z,2.80
2019-03-15T12:45:58.176Z,2.40
2019-03-15T12:50:04.025Z,2.62
2019-03-15T12:54:09.186Z,3.02
2019-03-15T12:58:14.232Z,3.12
2019-03-15T13:02:20.480Z,2.50
2019-03-15T13:06:25.849Z,3.05
2019-03-15T13:10:31.156Z,3.70
2019-03-15T13:14:36.652Z,3.25
2019-03-15T13:18:42.728Z,3.33
2019-03-15T13:22:48.172Z,2.92
2019-03-15T13:27:06.454Z,3.70
2019-03-15T13:31:00.204Z,3.65
2019-03-15T13:35:05.791Z,2.98
2019-03-15T13:39:10.811Z,2.80
2019-03-15T13:43:15.786Z,3.40
2019-03-15T13:47:20.990Z,3.47
2019-03-15T13:51:26.213Z,3.98
2019-03-15T13:55:31.794Z,4.33
2019-03-15T13:59:37.452Z,4.05
2019-03-15T14:03:43.110Z,3.90
2019-03-15T14:07:48.665Z,4.47
2019-03-15T14:11:54.323Z,3.95
2019-03-15T14:16:01.562Z,4.45
2019-03-15T14:20:09.530Z,4.78
2019-03-15T14:24:16.210Z,5.53
2019-03-15T14:28:21.709Z,6.15
2019-03-15T14:32:27.322Z,5.50
2019-03-15T14:36:32.981Z,5.90
2019-03-15T14:40:38.816Z,6.45
2019-03-15T14:44:45.659Z,5.90
2019-03-15T14:48:51.182Z,5.58
2019-03-15T14:52:56.839Z,5.15
2019-03-15T14:57:03.520Z,5.00
2019-03-15T15:01:09.201Z,4.70
2019-03-15T15:05:14.732Z,4.65
2019-03-15T15:09:20.198Z,4.30
2019-03-15T15:13:28.104Z,4.70
2019-03-15T15:17:33.754Z,4.22
2019-03-15T15:21:39.414Z,5.30
2019-03-15T15:25:45.067Z,5.33
2019-03-15T15:29:50.629Z,5.05
2019-03-15T15:33:58.875Z,5.45
2019-03-15T15:38:03.482Z,4.90
2019-03-15T15:42:10.367Z,5.35
2019-03-15T15:46:17.069Z,5.65
2019-03-15T15:50:22.704Z,5.97
2019-03-15T15:54:29.486Z,6.58
2019-03-15T15:58:35.153Z,5.37
2019-03-15T16:02:40.699Z,5.17
2019-03-15T16:06:48.599Z,4.20
2019-03-15T16:10:54.164Z,4.05
2019-03-15T16:14:59.821Z,4.22
2019-03-15T16:19:05.710Z,4.35
2019-03-15T16:23:11.442Z,3.90
2019-03-15T16:27:17.002Z,3.70
2019-03-15T16:31:22.554Z,3.60
2019-03-15T16:35:27.913Z,3.87
2019-03-15T16:39:33.607Z,3.20
2019-03-15T16:43:41.165Z,3.65
2019-03-15T16:47:46.821Z,4.08
2019-03-15T16:51:53.197Z,2.80
2019-03-15T16:55:58.956Z,3.10
2019-03-15T17:00:07.073Z,2.42
2019-03-15T17:04:12.838Z,2.15
2019-03-15T17:08:20.028Z,2.00
2019-03-15T17:12:25.579Z,1.80
2019-03-15T17:16:32.569Z,1.75
2019-03-15T17:20:39.352Z,2.00
2019-03-15T17:24:47.777Z,1.50
2019-03-15T17:28:58.668Z,1.57
2019-03-15T17:33:00.638Z,1.30
2019-03-15T17:37:07.073Z,1.20
2019-03-15T17:41:12.762Z,1.10
2019-03-15T17:45:18.467Z,1.10
2019-03-15T17:49:24.076Z,1.37
2019-03-15T17:53:29.837Z,1.32
2019-03-15T17:57:35.394Z,1.22
2019-03-15T18:01:41.049Z,1.20
2019-03-15T18:05:46.852Z,1.10
2019-03-15T18:09:52.365Z,1.55
2019-03-15T18:13:57.992Z,1.50
2019-03-15T18:18:03.784Z,1.20
2019-03-15T18:22:09.337Z,0.90
2019-03-15T18:26:15.201Z,1.07
2019-03-15T18:30:20.858Z,1.07
2019-03-15T18:34:26.622Z,2.00
2019-03-15T18:38:32.376Z,1.27
2019-03-15T18:42:39.063Z,1.27
2019-03-15T18:46:44.717Z,1.30
2019-03-15T18:50:50.375Z,1.00
2019-03-15T18:54:56.050Z,1.00
2019-03-15T18:59:02.977Z,1.22
2019-03-15T19:03:08.683Z,1.20
2019-03-15T19:07:14.339Z,1.10
2019-03-15T19:11:19.994Z,1.22
2019-03-15T19:15:25.755Z,1.80
2019-03-15T19:19:31.423Z,1.40
2019-03-15T19:23:37.173Z,1.37
2019-03-15T19:27:45.438Z,1.60
2019-03-15T19:31:51.353Z,1.47
2019-03-15T19:35:59.018Z,1.10
2019-03-15T19:40:08.404Z,1.27
2019-03-15T19:44:14.675Z,1.40
2019-03-15T19:48:20.948Z,1.02
2019-03-15T19:52:34.797Z,1.30
2019-03-15T19:56:40.503Z,1.12
2019-03-15T20:00:46.426Z,1.45
2019-03-15T20:04:55.828Z,1.82
2019-03-15T20:09:04.025Z,1.17
2019-03-15T20:13:12.096Z,1.97
2019-03-15T20:17:20.553Z,1.20
2019-03-15T20:21:27.531Z,1.90
2019-03-15T20:25:33.127Z,2.40
2019-03-15T20:29:40.678Z,2.70
2019-03-15T20:33:46.119Z,1.70
2019-03-15T20:37:52.538Z,1.60
2019-03-15T20:41:58.461Z,2.27
2019-03-15T20:46:04.117Z,1.92
2019-03-15T20:50:14.542Z,2.52
2019-03-15T20:54:20.180Z,2.08
2019-03-15T20:58:26.006Z,1.65
2019-03-15T21:02:32.173Z,2.30
2019-03-15T21:06:38.140Z,2.05
2019-03-15T21:10:46.458Z,2.08
2019-03-15T21:14:52.151Z,1.90
2019-03-15T21:18:59.207Z,2.27
2019-03-15T21:23:06.401Z,2.55
2019-03-15T21:27:13.269Z,2.15
2019-03-15T21:31:19.045Z,2.20
2019-03-15T21:35:25.430Z,2.60
2019-03-15T21:39:31.591Z,2.20
2019-03-15T21:43:37.863Z,2.58
2019-03-15T21:47:43.726Z,2.10
2019-03-15T21:51:49.490Z,1.82
2019-03-15T21:55:56.719Z,2.05
2019-03-15T22:00:02.338Z,2.42
2019-03-15T22:04:08.711Z,2.17
2019-03-15T22:08:17.704Z,2.50
2019-03-15T22:12:23.000Z,2.62
2019-03-15T22:16:29.371Z,2.42
2019-03-15T22:20:36.155Z,2.80
2019-03-15T22:24:41.813Z,2.98
2019-03-15T22:28:47.474Z,2.77
2019-03-15T22:32:53.230Z,3.15
2019-03-15T22:37:00.014Z,2.70
2019-03-15T22:41:05.570Z,2.60
2019-03-15T22:45:12.359Z,2.83
2019-03-15T22:49:17.807Z,2.22
2019-03-15T22:53:23.156Z,2.87
2019-03-15T22:57:28.611Z,2.42
2019-03-15T23:01:35.496Z,2.45
2019-03-15T23:05:40.989Z,2.42
2019-03-15T23:09:46.504Z,2.67
2019-03-15T23:13:52.163Z,3.55
2019-03-15T23:17:57.616Z,2.52
2019-03-15T23:22:02.763Z,3.05
2019-03-15T23:26:08.320Z,2.47
2019-03-15T23:30:17.184Z,2.85
2019-03-15T23:34:22.603Z,3.15
2019-03-15T23:38:27.750Z,2.22
2019-03-15T23:42:33.085Z,3.67
2019-03-15T23:46:38.316Z,2.95
2019-03-15T23:50:43.490Z,2.45
2019-03-15T23:54:48.640Z,3.17
2019-03-15T23:58:53.781Z,3.02
